Time,TemperatureF,DewpointF,PressureIn,WindDirection,WindDirectionDegrees,WindSpeedMPH,WindSpeedGustMPH,Humidity,HourlyPrecipIn,Conditions,Clouds,dailyrainin,SoftwareType,DateUTC
2013-08-06 00:01:00,68.0,55.8,29.36,SW,225,0.0,1.0,65,0.00,,,0.00,meteohub,2013-08-06 07:01:00,
2013-08-06 00:06:00,67.8,55.6,29.36,West,270,0.0,0.0,65,0.00,,,0.00,meteohub,2013-08-06 07:06:00,
2013-08-06 00:11:00,68.0,55.8,29.36,West,270,0.0,1.0,65,0.00,,,0.00,meteohub,2013-08-06 07:11:00,
2013-08-06 00:16:00,68.0,55.4,29.37,NE,45,0.0,1.0,64,0.00,,,0.00,meteohub,2013-08-06 07:16:00,
2013-08-06 00:21:00,68.0,55.4,29.37,NE,45,0.0,1.0,64,0.00,,,0.00,meteohub,2013-08-06 07:21:00,
2013-08-06 00:26:00,67.6,55.0,29.37,NE,45,0.0,0.0,64,0.00,,,0.00,meteohub,2013-08-06 07:26:00,
2013-08-06 00:31:00,67.6,55.4,29.37,NE,45,0.0,0.0,65,0.00,,,0.00,meteohub,2013-08-06 07:31:00,
2013-08-06 00:36:00,67.6,55.9,29.37,NE,45,0.0,0.0,66,0.00,,,0.00,meteohub,2013-08-06 07:36:00,
2013-08-06 00:41:00,67.6,55.9,29.37,NE,45,1.0,2.0,66,0.00,,,0.00,meteohub,2013-08-06 07:41:00,
2013-08-06 00:47:00,67.3,55.9,29.37,NE,45,2.0,2.0,67,0.00,,,0.00,meteohub,2013-08-06 07:47:00,
2013-08-06 00:52:00,66.9,55.9,29.37,North,0,0.0,2.0,68,0.00,,,0.00,meteohub,2013-08-06 07:52:00,
2013-08-06 00:57:00,66.4,55.6,29.37,North,0,0.0,2.0,68,0.00,,,0.00,meteohub,2013-08-06 07:57:00,
2013-08-06 01:02:00,66.0,55.2,29.38,North,0,0.0,2.0,68,0.00,,,0.00,meteohub,2013-08-06 08:02:00,
2013-08-06 01:07:00,65.5,55.0,29.38,North,0,0.0,1.0,69,0.00,,,0.00,meteohub,2013-08-06 08:07:00,
2013-08-06 01:12:00,65.1,55.0,29.38,North,0,1.0,2.0,70,0.00,,,0.00,meteohub,2013-08-06 08:12:00,
2013-08-06 01:17:00,64.8,54.7,29.38,North,0,0.0,2.0,70,0.00,,,0.00,meteohub,2013-08-06 08:17:00,
2013-08-06 01:22:00,64.0,54.5,29.38,North,0,0.0,2.0,71,0.00,,,0.00,meteohub,2013-08-06 08:22:00,
2013-08-06 01:27:00,63.7,54.1,29.38,SW,225,1.0,1.0,71,0.00,,,0.00,meteohub,2013-08-06 08:27:00,
2013-08-06 01:32:00,63.3,53.4,29.38,SW,225,0.0,1.0,70,0.00,,,0.00,meteohub,2013-08-06 08:32:00,
2013-08-06 01:37:00,63.1,53.6,29.38,SW,225,0.0,1.0,71,0.00,,,0.00,meteohub,2013-08-06 08:37:00,
2013-08-06 01:42:00,63.3,53.8,29.38,SW,225,0.0,1.0,71,0.00,,,0.00,meteohub,2013-08-06 08:42:00,
2013-08-06 01:47:00,63.3,54.5,29.38,North,0,0.0,1.0,73,0.00,,,0.00,meteohub,2013-08-06 08:47:00,
2013-08-06 01:52:00,63.1,54.3,29.38,North,0,0.0,0.0,73,0.00,,,0.00,meteohub,2013-08-06 08:52:00,
2013-08-06 01:57:00,63.0,54.1,29.38,North,0,0.0,0.0,73,0.00,,,0.00,meteohub,2013-08-06 08:57:00,
2013-08-06 02:02:00,62.6,54.1,29.38,North,0,0.0,0.0,74,0.00,,,0.00,meteohub,2013-08-06 09:02:00,
2013-08-06 02:07:00,62.2,53.8,29.38,North,0,0.0,0.0,74,0.00,,,0.00,meteohub,2013-08-06 09:07:00,
2013-08-06 02:12:00,62.1,53.6,29.38,North,0,0.0,0.0,74,0.00,,,0.00,meteohub,2013-08-06 09:12:00,
2013-08-06 02:17:00,61.9,53.4,29.38,North,0,0.0,0.0,74,0.00,,,0.00,meteohub,2013-08-06 09:17:00,
2013-08-06 02:22:00,61.9,53.8,29.38,North,0,0.0,0.0,75,0.00,,,0.00,meteohub,2013-08-06 09:22:00,
2013-08-06 02:27:00,62.1,54.3,29.38,North,0,0.0,0.0,76,0.00,,,0.00,meteohub,2013-08-06 09:27:00,
2013-08-06 02:32:00,61.9,53.8,29.38,North,0,0.0,0.0,75,0.00,,,0.00,meteohub,2013-08-06 09:32:00,
2013-08-06 02:37:00,61.7,53.2,29.38,North,0,0.0,0.0,74,0.00,,,0.00,meteohub,2013-08-06 09:37:00,
2013-08-06 02:42:00,61.5,53.6,29.38,North,0,0.0,0.0,75,0.00,,,0.00,meteohub,2013-08-06 09:42:00,
2013-08-06 02:47:00,61.3,53.8,29.38,North,0,0.0,0.0,76,0.00,,,0.00,meteohub,2013-08-06 09:47:00,
2013-08-06 02:52:00,61.3,54.1,29.38,North,0,0.0,0.0,77,0.00,,,0.00,meteohub,2013-08-06 09:52:00,
2013-08-06 02:57:00,61.3,54.1,29.38,North,0,0.0,0.0,77,0.00,,,0.00,meteohub,2013-08-06 09:57:00,
2013-08-06 03:02:00,61.3,54.5,29.39,North,0,0.0,0.0,78,0.00,,,0.00,meteohub,2013-08-06 10:02:00,
2013-08-06 03:07:00,61.5,54.3,29.39,North,0,0.0,0.0,77,0.00,,,0.00,meteohub,2013-08-06 10:07:00,
2013-08-06 03:12:00,61.3,54.1,29.39,North,0,0.0,0.0,77,0.00,,,0.00,meteohub,2013-08-06 10:12:00,
2013-08-06 03:17:00,61.3,54.1,29.39,North,0,0.0,0.0,77,0.00,,,0.00,meteohub,2013-08-06 10:17:00,
2013-08-06 03:22:00,61.3,54.5,29.39,East,90,0.0,0.0,78,0.00,,,0.00,meteohub,2013-08-06 10:22:00,
2013-08-06 03:27:00,61.3,54.5,29.39,North,0,0.0,0.0,78,0.00,,,0.00,meteohub,2013-08-06 10:27:00,
2013-08-06 03:32:00,61.3,54.9,29.39,North,0,2.0,0.0,79,0.00,,,0.00,meteohub,2013-08-06 10:32:00,
2013-08-06 03:37:00,61.5,54.7,29.39,North,0,0.0,2.0,78,0.00,,,0.00,meteohub,2013-08-06 10:37:00,
2013-08-06 03:42:00,61.2,54.3,29.39,North,0,0.0,2.0,78,0.00,,,0.00,meteohub,2013-08-06 10:42:00,
2013-08-06 03:47:00,60.8,54.0,29.39,North,0,0.0,2.0,78,0.00,,,0.00,meteohub,2013-08-06 10:47:00,
2013-08-06 03:52:00,60.6,54.1,29.39,North,0,0.0,1.0,79,0.00,,,0.00,meteohub,2013-08-06 10:52:00,
2013-08-06 03:57:00,60.4,54.0,29.39,North,0,0.0,0.0,79,0.00,,,0.00,meteohub,2013-08-06 10:57:00,
2013-08-06 04:02:00,60.1,53.6,29.39,North,0,0.0,0.0,79,0.00,,,0.00,meteohub,2013-08-06 11:02:00,
2013-08-06 04:07:00,59.9,53.4,29.39,North,0,0.0,0.0,79,0.00,,,0.00,meteohub,2013-08-06 11:07:00,
2013-08-06 04:12:00,59.7,53.2,29.39,South,180,0.0,0.0,79,0.00,,,0.00,meteohub,2013-08-06 11:12:00,
2013-08-06 04:17:00,59.7,52.9,29.39,South,180,0.0,0.0,78,0.00,,,0.00,meteohub,2013-08-06 11:17:00,
2013-08-06 04:22:00,59.4,52.5,29.39,South,180,0.0,0.0,78,0.00,,,0.00,meteohub,2013-08-06 11:22:00,
2013-08-06 04:27:00,59.2,52.0,29.39,South,180,0.0,0.0,77,0.00,,,0.00,meteohub,2013-08-06 11:27:00,
2013-08-06 04:32:00,59.0,51.8,29.39,South,180,0.0,0.0,77,0.00,,,0.00,meteohub,2013-08-06 11:32:00,
2013-08-06 04:37:00,58.8,51.6,29.39,South,180,0.0,0.0,77,0.00,,,0.00,meteohub,2013-08-06 11:37:00,
2013-08-06 04:42:00,59.0,51.4,29.39,South,180,2.0,0.0,76,0.00,,,0.00,meteohub,2013-08-06 11:42:00,
2013-08-06 04:47:00,59.0,51.1,29.39,South,180,1.0,2.0,75,0.00,,,0.00,meteohub,2013-08-06 11:47:00,
2013-08-06 04:52:00,59.0,51.1,29.39,South,180,0.0,2.0,75,0.00,,,0.00,meteohub,2013-08-06 11:52:00,
2013-08-06 04:57:00,59.2,51.3,29.39,South,180,0.0,2.0,75,0.00,,,0.00,meteohub,2013-08-06 11:57:00,
2013-08-06 05:02:00,59.0,51.1,29.39,South,180,0.0,1.0,75,0.00,,,0.00,meteohub,2013-08-06 12:02:00,
2013-08-06 05:07:00,58.8,50.9,29.39,South,180,0.0,0.0,75,0.00,,,0.00,meteohub,2013-08-06 12:07:00,
2013-08-06 05:12:00,59.2,51.3,29.39,South,180,0.0,0.0,75,0.00,,,0.00,meteohub,2013-08-06 12:12:00,
2013-08-06 05:17:00,59.4,51.4,29.39,South,180,0.0,0.0,75,0.00,,,0.00,meteohub,2013-08-06 12:17:00,
2013-08-06 05:22:00,59.4,51.1,29.39,South,180,0.0,0.0,74,0.00,,,0.00,meteohub,2013-08-06 12:22:00,
2013-08-06 05:27:00,59.4,51.4,29.39,South,180,0.0,0.0,75,0.00,,,0.00,meteohub,2013-08-06 12:27:00,
2013-08-06 05:32:00,59.4,51.4,29.39,South,180,0.0,0.0,75,0.00,,,0.00,meteohub,2013-08-06 12:32:00,
2013-08-06 05:37:00,59.2,51.3,29.39,South,180,0.0,0.0,75,0.00,,,0.00,meteohub,2013-08-06 12:37:00,
2013-08-06 05:42:00,59.0,51.1,29.40,South,180,0.0,0.0,75,0.00,,,0.00,meteohub,2013-08-06 12:42:00,
2013-08-06 05:47:00,59.2,51.6,29.40,South,180,0.0,0.0,76,0.00,,,0.00,meteohub,2013-08-06 12:47:00,
2013-08-06 05:52:00,59.4,52.2,29.40,South,180,0.0,0.0,77,0.00,,,0.00,meteohub,2013-08-06 12:52:00,
2013-08-06 05:57:00,59.5,51.6,29.40,South,180,0.0,0.0,75,0.00,,,0.00,meteohub,2013-08-06 12:57:00,
2013-08-06 06:02:00,59.2,50.5,29.40,South,180,0.0,0.0,73,0.00,,,0.00,meteohub,2013-08-06 13:02:00,
2013-08-06 06:07:00,58.8,49.5,29.40,South,180,0.0,0.0,71,0.00,,,0.00,meteohub,2013-08-06 13:07:00,
2013-08-06 06:12:00,58.8,49.1,29.41,South,180,0.0,0.0,70,0.00,,,0.00,meteohub,2013-08-06 13:12:00,
2013-08-06 06:17:00,58.8,49.5,29.40,South,180,0.0,0.0,71,0.00,,,0.00,meteohub,2013-08-06 13:17:00,
2013-08-06 06:22:00,58.8,49.5,29.40,South,180,0.0,0.0,71,0.00,,,0.00,meteohub,2013-08-06 13:22:00,
2013-08-06 06:27:00,59.2,50.2,29.40,South,180,0.0,0.0,72,0.00,,,0.00,meteohub,2013-08-06 13:27:00,
2013-08-06 06:32:00,59.5,50.9,29.40,NE,45,0.0,0.0,73,0.00,,,0.00,meteohub,2013-08-06 13:32:00,
2013-08-06 06:37:00,59.9,51.3,29.40,NE,45,0.0,0.0,73,0.00,,,0.00,meteohub,2013-08-06 13:37:00,
2013-08-06 06:42:00,60.1,51.4,29.41,SW,225,0.0,0.0,73,0.00,,,0.00,meteohub,2013-08-06 13:42:00,
2013-08-06 06:47:00,59.9,50.5,29.40,SW,225,0.0,2.0,71,0.00,,,0.00,meteohub,2013-08-06 13:47:00,
2013-08-06 06:52:00,59.7,50.4,29.41,SW,225,0.0,2.0,71,0.00,,,0.00,meteohub,2013-08-06 13:52:00,
2013-08-06 06:57:00,59.9,50.5,29.41,SW,225,0.0,2.0,71,0.00,,,0.00,meteohub,2013-08-06 13:57:00,
2013-08-06 07:02:00,59.9,50.5,29.41,SW,225,0.0,1.0,71,0.00,,,0.00,meteohub,2013-08-06 14:02:00,
2013-08-06 07:07:00,60.1,51.1,29.41,SW,225,0.0,0.0,72,0.00,,,0.00,meteohub,2013-08-06 14:07:00,
2013-08-06 07:12:00,60.8,52.2,29.41,NE,45,0.0,0.0,73,0.00,,,0.00,meteohub,2013-08-06 14:12:00,
2013-08-06 07:17:00,61.3,53.1,29.41,NE,45,2.0,2.0,74,0.00,,,0.00,meteohub,2013-08-06 14:17:00,
2013-08-06 07:22:00,61.7,53.2,29.41,NE,45,2.0,2.0,74,0.00,,,0.00,meteohub,2013-08-06 14:22:00,
2013-08-06 07:27:00,61.9,53.8,29.40,North,0,2.0,2.0,75,0.00,,,0.00,meteohub,2013-08-06 14:27:00,
2013-08-06 07:32:00,62.1,53.6,29.41,NE,45,3.0,3.0,74,0.00,,,0.00,meteohub,2013-08-06 14:32:00,
2013-08-06 07:37:00,62.1,53.6,29.41,North,0,2.0,3.0,74,0.00,,,0.00,meteohub,2013-08-06 14:37:00,
2013-08-06 07:42:00,62.4,54.0,29.41,NE,45,3.0,3.0,74,0.00,,,0.00,meteohub,2013-08-06 14:42:00,
2013-08-06 07:47:00,62.6,53.8,29.41,NE,45,2.0,3.0,73,0.00,,,0.00,meteohub,2013-08-06 14:47:00,
2013-08-06 07:52:00,62.8,53.6,29.42,NE,45,2.0,3.0,72,0.00,,,0.00,meteohub,2013-08-06 14:52:00,
2013-08-06 07:57:00,63.1,54.0,29.41,NE,45,2.0,3.0,72,0.00,,,0.00,meteohub,2013-08-06 14:57:00,
2013-08-06 08:02:00,65.1,56.3,29.42,North,0,0.0,3.0,73,0.00,,,0.00,meteohub,2013-08-06 15:02:00,
2013-08-06 08:07:00,67.8,57.2,29.42,SW,225,2.0,2.0,69,0.00,,,0.00,meteohub,2013-08-06 15:07:00,
2013-08-06 08:12:00,70.2,57.9,29.42,SW,225,2.0,2.0,65,0.00,,,0.00,meteohub,2013-08-06 15:12:00,
2013-08-06 08:17:00,72.1,59.4,29.42,SW,225,0.0,2.0,64,0.00,,,0.00,meteohub,2013-08-06 15:17:00,
2013-08-06 08:22:00,74.5,60.6,29.42,SW,225,0.0,2.0,62,0.00,,,0.00,meteohub,2013-08-06 15:22:00,
2013-08-06 08:27:00,76.8,61.0,29.42,East,90,0.0,2.0,58,0.00,,,0.00,meteohub,2013-08-06 15:27:00,
2013-08-06 08:32:00,77.4,57.2,29.42,NE,45,2.0,0.0,50,0.00,,,0.00,meteohub,2013-08-06 15:32:00,
2013-08-06 08:37:00,77.5,57.4,29.42,NW,315,1.0,2.0,50,0.00,,,0.00,meteohub,2013-08-06 15:37:00,
2013-08-06 08:42:00,77.9,56.1,29.42,NE,45,3.0,3.0,47,0.00,,,0.00,meteohub,2013-08-06 15:42:00,
2013-08-06 08:47:00,78.1,57.4,29.42,NE,45,2.0,3.0,49,0.00,,,0.00,meteohub,2013-08-06 15:47:00,
2013-08-06 08:52:00,77.4,55.6,29.42,NE,45,4.0,4.0,47,0.00,,,0.00,meteohub,2013-08-06 15:52:00,
2013-08-06 08:57:00,76.3,55.8,29.43,East,90,2.0,4.0,49,0.00,,,0.00,meteohub,2013-08-06 15:57:00,
2013-08-06 09:02:00,76.5,55.9,29.43,NE,45,4.0,4.0,49,0.00,,,0.00,meteohub,2013-08-06 16:02:00,
2013-08-06 09:07:00,77.4,57.2,29.42,North,0,2.0,4.0,50,0.00,,,0.00,meteohub,2013-08-06 16:07:00,
2013-08-06 09:12:00,78.1,56.8,29.42,East,90,2.0,4.0,48,0.00,,,0.00,meteohub,2013-08-06 16:12:00,
2013-08-06 09:17:00,77.5,55.8,29.42,NW,315,2.0,4.0,47,0.00,,,0.00,meteohub,2013-08-06 16:17:00,
2013-08-06 09:22:00,78.3,55.8,29.42,NE,45,4.0,4.0,46,0.00,,,0.00,meteohub,2013-08-06 16:22:00,
2013-08-06 09:27:00,78.1,55.6,29.42,West,270,3.0,4.0,46,0.00,,,0.00,meteohub,2013-08-06 16:27:00,
2013-08-06 09:32:00,78.6,56.1,29.42,North,0,2.0,4.0,46,0.00,,,0.00,meteohub,2013-08-06 16:32:00,
2013-08-06 09:37:00,79.5,56.8,29.42,North,0,2.0,4.0,46,0.00,,,0.00,meteohub,2013-08-06 16:37:00,
2013-08-06 09:42:00,80.6,56.7,29.42,North,0,2.0,4.0,44,0.00,,,0.00,meteohub,2013-08-06 16:42:00,
2013-08-06 09:47:00,80.8,54.9,29.43,NE,45,3.0,4.0,41,0.00,,,0.00,meteohub,2013-08-06 16:47:00,
2013-08-06 09:52:00,80.4,55.2,29.42,NE,45,2.0,4.0,42,0.00,,,0.00,meteohub,2013-08-06 16:52:00,
2013-08-06 09:57:00,79.9,54.7,29.42,NE,45,3.0,5.0,42,0.00,,,0.00,meteohub,2013-08-06 16:57:00,
2013-08-06 10:02:00,80.6,55.4,29.42,NW,315,2.0,5.0,42,0.00,,,0.00,meteohub,2013-08-06 17:02:00,
2013-08-06 10:07:00,81.9,54.5,29.42,NE,45,4.0,5.0,39,0.00,,,0.00,meteohub,2013-08-06 17:07:00,
2013-08-06 10:12:00,82.4,52.7,29.42,NE,45,4.0,4.0,36,0.00,,,0.00,meteohub,2013-08-06 17:12:00,
2013-08-06 10:17:00,82.4,54.3,29.42,NE,45,4.0,4.0,38,0.00,,,0.00,meteohub,2013-08-06 17:17:00,
2013-08-06 10:22:00,82.6,54.3,29.42,East,90,2.0,4.0,38,0.00,,,0.00,meteohub,2013-08-06 17:22:00,
2013-08-06 10:27:00,82.6,52.9,29.42,North,0,3.0,5.0,36,0.00,,,0.00,meteohub,2013-08-06 17:27:00,
2013-08-06 10:32:00,83.5,54.5,29.42,NE,45,2.0,5.0,37,0.00,,,0.00,meteohub,2013-08-06 17:32:00,
2013-08-06 10:37:00,84.9,54.1,29.42,NE,45,2.0,5.0,35,0.00,,,0.00,meteohub,2013-08-06 17:37:00,
2013-08-06 10:42:00,86.0,51.8,29.42,East,90,4.0,4.0,31,0.00,,,0.00,meteohub,2013-08-06 17:42:00,
2013-08-06 10:47:00,85.5,53.1,29.42,East,90,2.0,4.0,33,0.00,,,0.00,meteohub,2013-08-06 17:47:00,
2013-08-06 10:52:00,86.2,50.2,29.42,NE,45,4.0,4.0,29,0.00,,,0.00,meteohub,2013-08-06 17:52:00,
2013-08-06 10:57:00,85.8,49.8,29.42,NE,45,2.0,4.0,29,0.00,,,0.00,meteohub,2013-08-06 17:57:00,
2013-08-06 11:02:00,86.9,48.9,29.41,NE,45,4.0,6.0,27,0.00,,,0.00,meteohub,2013-08-06 18:02:00,
2013-08-06 11:07:00,86.4,50.4,29.42,NE,45,4.0,6.0,29,0.00,,,0.00,meteohub,2013-08-06 18:07:00,
2013-08-06 11:12:00,86.9,49.8,29.42,NE,45,4.0,5.0,28,0.00,,,0.00,meteohub,2013-08-06 18:12:00,
2013-08-06 11:17:00,86.7,50.7,29.41,NE,45,3.0,5.0,29,0.00,,,0.00,meteohub,2013-08-06 18:17:00,
2013-08-06 11:22:00,87.1,49.1,29.41,North,0,5.0,5.0,27,0.00,,,0.00,meteohub,2013-08-06 18:22:00,
2013-08-06 11:27:00,86.5,49.6,29.41,South,180,2.0,5.0,28,0.00,,,0.00,meteohub,2013-08-06 18:27:00,
2013-08-06 11:32:00,87.3,50.2,29.41,North,0,2.0,5.0,28,0.00,,,0.00,meteohub,2013-08-06 18:32:00,
2013-08-06 11:37:00,87.8,47.7,29.42,East,90,6.0,6.0,25,0.00,,,0.00,meteohub,2013-08-06 18:37:00,
2013-08-06 11:42:00,87.4,48.4,29.42,North,0,3.0,6.0,26,0.00,,,0.00,meteohub,2013-08-06 18:42:00,
2013-08-06 11:47:00,87.8,47.7,29.42,East,90,4.0,6.0,25,0.00,,,0.00,meteohub,2013-08-06 18:47:00,
2013-08-06 11:52:00,87.6,48.6,29.41,NE,45,4.0,6.0,26,0.00,,,0.00,meteohub,2013-08-06 18:52:00,
2013-08-06 11:57:00,87.4,49.3,29.42,SE,135,4.0,5.0,27,0.00,,,0.00,meteohub,2013-08-06 18:57:00,
2013-08-06 12:02:00,87.4,49.3,29.41,NE,45,3.0,7.0,27,0.00,,,0.00,meteohub,2013-08-06 19:02:00,
2013-08-06 12:07:00,88.2,48.9,29.40,NE,45,3.0,7.0,26,0.00,,,0.00,meteohub,2013-08-06 19:07:00,
2013-08-06 12:12:00,88.7,48.4,29.40,North,0,5.0,7.0,25,0.00,,,0.00,meteohub,2013-08-06 19:12:00,
2013-08-06 12:17:00,89.4,48.9,29.40,NE,45,3.0,7.0,25,0.00,,,0.00,meteohub,2013-08-06 19:17:00,
2013-08-06 12:22:00,89.4,47.8,29.40,NE,45,5.0,6.0,24,0.00,,,0.00,meteohub,2013-08-06 19:22:00,
2013-08-06 12:27:00,89.6,48.0,29.40,NE,45,3.0,6.0,24,0.00,,,0.00,meteohub,2013-08-06 19:27:00,
2013-08-06 12:32:00,90.0,47.1,29.40,NE,45,5.0,6.0,23,0.00,,,0.00,meteohub,2013-08-06 19:32:00,
2013-08-06 12:37:00,91.0,49.3,29.39,North,0,4.0,5.0,24,0.00,,,0.00,meteohub,2013-08-06 19:37:00,
2013-08-06 12:42:00,91.0,48.0,29.40,NE,45,4.0,5.0,23,0.00,,,0.00,meteohub,2013-08-06 19:42:00,
2013-08-06 12:47:00,90.9,46.8,29.39,East,90,4.0,5.0,22,0.00,,,0.00,meteohub,2013-08-06 19:47:00,
2013-08-06 12:52:00,90.7,46.6,29.39,WNW,293,5.0,5.0,22,0.00,,,0.00,meteohub,2013-08-06 19:52:00,
2013-08-06 12:57:00,90.9,43.0,29.39,NE,45,4.0,5.0,19,0.00,,,0.00,meteohub,2013-08-06 19:57:00,
2013-08-06 13:02:00,91.6,43.5,29.39,West,270,4.0,5.0,19,0.00,,,0.00,meteohub,2013-08-06 20:02:00,
2013-08-06 13:07:00,91.6,46.0,29.39,North,0,3.0,6.0,21,0.00,,,0.00,meteohub,2013-08-06 20:07:00,
2013-08-06 13:12:00,91.6,42.1,29.39,North,0,4.0,8.0,18,0.00,,,0.00,meteohub,2013-08-06 20:12:00,
2013-08-06 13:17:00,91.8,39.2,29.39,NE,45,4.0,8.0,16,0.00,,,0.00,meteohub,2013-08-06 20:17:00,
2013-08-06 13:22:00,92.8,38.5,29.39,North,0,5.0,8.0,15,0.00,,,0.00,meteohub,2013-08-06 20:22:00,
2013-08-06 13:27:00,93.0,36.9,29.38,NNE,23,6.0,8.0,14,0.00,,,0.00,meteohub,2013-08-06 20:27:00,
2013-08-06 13:32:00,93.4,37.0,29.39,SE,135,6.0,6.0,14,0.00,,,0.00,meteohub,2013-08-06 20:32:00,
2013-08-06 13:35:00,93.4,40.5,29.38,NE,45,6.0,6.0,16,0.00,,,0.00,meteohub,2013-08-06 20:35:00,
2013-08-06 13:40:00,92.5,39.7,29.38,NE,45,6.0,7.0,16,0.00,,,0.00,meteohub,2013-08-06 20:40:00,
2013-08-06 13:45:00,93.2,43.3,29.38,NE,45,2.0,7.0,18,0.00,,,0.00,meteohub,2013-08-06 20:45:00,
2013-08-06 13:50:00,94.6,41.5,29.38,NW,315,3.0,7.0,16,0.00,,,0.00,meteohub,2013-08-06 20:50:00,
2013-08-06 13:55:00,95.2,40.3,29.38,NE,45,3.0,7.0,15,0.00,,,0.00,meteohub,2013-08-06 20:55:00,
2013-08-06 14:00:00,94.6,38.1,29.37,NE,45,4.0,6.0,14,0.00,,,0.00,meteohub,2013-08-06 21:00:00,
2013-08-06 14:05:00,95.0,40.1,29.37,NE,45,4.0,6.0,15,0.00,,,0.00,meteohub,2013-08-06 21:05:00,
2013-08-06 14:10:00,95.9,39.0,29.37,SW,225,2.0,6.0,14,0.00,,,0.00,meteohub,2013-08-06 21:10:00,
2013-08-06 14:15:00,95.5,36.9,29.37,NE,45,8.0,8.0,13,0.00,,,0.00,meteohub,2013-08-06 21:15:00,
2013-08-06 14:20:00,95.4,40.5,29.36,East,90,4.0,8.0,15,0.00,,,0.00,meteohub,2013-08-06 21:20:00,
2013-08-06 14:26:00,96.3,37.4,29.36,East,90,3.0,8.0,13,0.00,,,0.00,meteohub,2013-08-06 21:26:00,
2013-08-06 14:31:00,96.3,35.4,29.36,North,0,6.0,8.0,12,0.00,,,0.00,meteohub,2013-08-06 21:31:00,
2013-08-06 14:36:00,96.3,37.4,29.36,NE,45,4.0,6.0,13,0.00,,,0.00,meteohub,2013-08-06 21:36:00,
2013-08-06 14:41:00,95.7,37.0,29.36,NE,45,4.0,8.0,13,0.00,,,0.00,meteohub,2013-08-06 21:41:00,
2013-08-06 14:46:00,95.9,35.1,29.36,North,0,9.0,9.0,12,0.00,,,0.00,meteohub,2013-08-06 21:46:00,
2013-08-06 14:51:00,95.7,37.0,29.36,North,0,4.0,9.0,13,0.00,,,0.00,meteohub,2013-08-06 21:51:00,
2013-08-06 14:56:00,95.7,35.1,29.36,North,0,6.0,9.0,12,0.00,,,0.00,meteohub,2013-08-06 21:56:00,
2013-08-06 15:01:00,96.4,33.4,29.36,SE,135,4.0,9.0,11,0.00,,,0.00,meteohub,2013-08-06 22:01:00,
2013-08-06 15:06:00,96.3,37.4,29.35,NE,45,4.0,8.0,13,0.00,,,0.00,meteohub,2013-08-06 22:06:00,
2013-08-06 15:11:00,96.6,37.8,29.35,North,0,2.0,11.0,13,0.00,,,0.00,meteohub,2013-08-06 22:11:00,
2013-08-06 15:16:00,97.9,34.5,29.35,North,0,4.0,11.0,11,0.00,,,0.00,meteohub,2013-08-06 22:16:00,
2013-08-06 15:21:00,99.0,37.6,29.35,NW,315,4.0,6.0,12,0.00,,,0.00,meteohub,2013-08-06 22:21:00,
2013-08-06 15:26:00,97.9,32.0,29.35,NE,45,7.0,8.0,10,0.00,,,0.00,meteohub,2013-08-06 22:26:00,
2013-08-06 15:31:00,97.5,31.8,29.35,NE,45,7.0,8.0,10,0.00,,,0.00,meteohub,2013-08-06 22:31:00,
2013-08-06 15:36:00,97.7,34.3,29.34,North,0,4.0,8.0,11,0.00,,,0.00,meteohub,2013-08-06 22:36:00,
2013-08-06 15:41:00,98.1,32.2,29.35,SE,135,4.0,8.0,10,0.00,,,0.00,meteohub,2013-08-06 22:41:00,
2013-08-06 15:46:00,97.7,38.5,29.34,SW,225,2.0,7.0,13,0.00,,,0.00,meteohub,2013-08-06 22:46:00,
2013-08-06 15:51:00,98.2,32.4,29.34,NE,45,4.0,7.0,10,0.00,,,0.00,meteohub,2013-08-06 22:51:00,
2013-08-06 15:56:00,99.1,35.4,29.34,North,0,3.0,6.0,11,0.00,,,0.00,meteohub,2013-08-06 22:56:00,
2013-08-06 16:01:00,99.0,39.6,29.34,SW,225,4.0,5.0,13,0.00,,,0.00,meteohub,2013-08-06 23:01:00,
2013-08-06 16:07:00,99.5,33.3,29.34,NE,45,4.0,8.0,10,0.00,,,0.00,meteohub,2013-08-06 23:07:00,
2013-08-06 16:12:00,99.3,35.6,29.34,North,0,2.0,8.0,11,0.00,,,0.00,meteohub,2013-08-06 23:12:00,
2013-08-06 16:17:00,99.7,33.4,29.34,NE,45,4.0,6.0,10,0.00,,,0.00,meteohub,2013-08-06 23:17:00,
2013-08-06 16:22:00,98.4,32.5,29.34,North,0,4.0,7.0,10,0.00,,,0.00,meteohub,2013-08-06 23:22:00,
2013-08-06 16:27:00,99.1,33.1,29.33,NE,45,4.0,7.0,10,0.00,,,0.00,meteohub,2013-08-06 23:27:00,
2013-08-06 16:33:00,98.2,34.7,29.33,North,0,5.0,8.0,11,0.00,,,0.00,meteohub,2013-08-06 23:33:00,
2013-08-06 16:38:00,99.3,35.6,29.33,NE,45,2.0,8.0,11,0.00,,,0.00,meteohub,2013-08-06 23:38:00,
2013-08-06 16:43:00,100.2,33.8,29.33,WNW,293,7.0,8.0,10,0.00,,,0.00,meteohub,2013-08-06 23:43:00,
2013-08-06 16:48:00,100.6,34.2,29.33,East,90,4.0,7.0,10,0.00,,,0.00,meteohub,2013-08-06 23:48:00,
2013-08-06 16:53:00,101.1,36.9,29.32,North,0,2.0,7.0,11,0.00,,,0.00,meteohub,2013-08-06 23:53:00,
2013-08-06 16:58:00,101.8,35.1,29.32,NW,315,4.0,7.0,10,0.00,,,0.00,meteohub,2013-08-06 23:58:00,
2013-08-06 17:03:00,101.5,34.9,29.32,East,90,2.0,7.0,10,0.00,,,0.00,meteohub,2013-08-07 00:03:00,
2013-08-06 17:22:00,99.5,35.8,29.33,North,0,1.0,7.0,11,0.00,,,0.00,meteohub,2013-08-07 00:22:00,
2013-08-06 17:27:00,99.9,33.6,29.33,North,0,2.0,7.0,10,0.00,,,0.00,meteohub,2013-08-07 00:27:00,
2013-08-06 17:34:00,101.8,35.1,29.33,West,270,6.0,6.0,10,0.00,,,0.00,meteohub,2013-08-07 00:34:00,
2013-08-06 17:39:00,101.5,46.9,29.33,East,90,4.0,6.0,16,0.00,,,0.00,meteohub,2013-08-07 00:39:00,
2013-08-06 17:44:00,99.9,45.7,29.33,SW,225,4.0,6.0,16,0.00,,,0.00,meteohub,2013-08-07 00:44:00,
2013-08-06 17:49:00,98.2,47.5,29.33,West,270,3.0,6.0,18,0.00,,,0.00,meteohub,2013-08-07 00:49:00,
2013-08-06 17:54:00,98.2,47.5,29.33,South,180,6.0,10.0,18,0.00,,,0.00,meteohub,2013-08-07 00:54:00,
2013-08-06 17:59:00,96.8,46.2,29.32,SW,225,9.0,10.0,18,0.00,,,0.00,meteohub,2013-08-07 00:59:00,
2013-08-06 18:04:00,95.4,48.0,29.33,South,180,4.0,11.0,20,0.00,,,0.00,meteohub,2013-08-07 01:04:00,
2013-08-06 18:09:00,96.1,45.7,29.32,South,180,7.0,11.0,18,0.00,,,0.00,meteohub,2013-08-07 01:09:00,
2013-08-06 18:14:00,95.5,46.8,29.33,SW,225,4.0,11.0,19,0.00,,,0.00,meteohub,2013-08-07 01:14:00,
2013-08-06 18:19:00,96.6,46.2,29.33,South,180,4.0,8.0,18,0.00,,,0.00,meteohub,2013-08-07 01:19:00,
2013-08-06 18:24:00,96.1,47.1,29.33,SW,225,5.0,8.0,19,0.00,,,0.00,meteohub,2013-08-07 01:24:00,
2013-08-06 18:29:00,95.2,47.8,29.33,SE,135,4.0,8.0,20,0.00,,,0.00,meteohub,2013-08-07 01:29:00,
2013-08-06 18:34:00,95.0,46.2,29.32,SW,225,5.0,7.0,19,0.00,,,0.00,meteohub,2013-08-07 01:34:00,
2013-08-06 18:39:00,94.8,48.7,29.33,South,180,2.0,7.0,21,0.00,,,0.00,meteohub,2013-08-07 01:39:00,
2013-08-06 18:44:00,93.9,48.0,29.32,SW,225,3.0,7.0,21,0.00,,,0.00,meteohub,2013-08-07 01:44:00,
2013-08-06 18:49:00,92.1,48.9,29.33,South,180,6.0,8.0,23,0.00,,,0.00,meteohub,2013-08-07 01:49:00,
2013-08-06 18:54:00,89.6,49.1,29.32,SW,225,6.0,8.0,25,0.00,,,0.00,meteohub,2013-08-07 01:54:00,
2013-08-06 19:00:00,88.7,49.5,29.33,SW,225,4.0,8.0,26,0.00,,,0.00,meteohub,2013-08-07 02:00:00,
2013-08-06 19:05:00,88.7,50.4,29.33,South,180,3.0,8.0,27,0.00,,,0.00,meteohub,2013-08-07 02:05:00,
2013-08-06 19:10:00,88.7,48.4,29.33,South,180,5.0,8.0,25,0.00,,,0.00,meteohub,2013-08-07 02:10:00,
2013-08-06 19:15:00,87.3,49.3,29.32,SW,225,4.0,8.0,27,0.00,,,0.00,meteohub,2013-08-07 02:15:00,
2013-08-06 19:20:00,86.0,50.0,29.32,South,180,5.0,6.0,29,0.00,,,0.00,meteohub,2013-08-07 02:20:00,
2013-08-06 19:25:00,84.9,49.1,29.33,SE,135,4.0,5.0,29,0.00,,,0.00,meteohub,2013-08-07 02:25:00,
2013-08-06 19:30:00,84.0,49.3,29.32,SW,225,4.0,5.0,30,0.00,,,0.00,meteohub,2013-08-07 02:30:00,
2013-08-06 19:35:00,83.3,49.5,29.32,South,180,4.0,5.0,31,0.00,,,0.00,meteohub,2013-08-07 02:35:00,
2013-08-06 19:40:00,82.6,48.0,29.33,SW,225,4.0,7.0,30,0.00,,,0.00,meteohub,2013-08-07 02:40:00,
2013-08-06 19:45:00,82.0,49.3,29.32,South,180,3.0,7.0,32,0.00,,,0.00,meteohub,2013-08-07 02:45:00,
2013-08-06 19:50:00,81.5,48.7,29.32,South,180,6.0,7.0,32,0.00,,,0.00,meteohub,2013-08-07 02:50:00,
2013-08-06 19:55:00,81.1,49.3,29.32,South,180,4.0,7.0,33,0.00,,,0.00,meteohub,2013-08-07 02:55:00,
2013-08-06 20:00:00,80.6,48.9,29.32,SW,225,4.0,7.0,33,0.00,,,0.00,meteohub,2013-08-07 03:00:00,
2013-08-06 20:05:00,80.2,49.3,29.32,South,180,4.0,7.0,34,0.00,,,0.00,meteohub,2013-08-07 03:05:00,
2013-08-06 20:10:00,79.7,49.6,29.32,South,180,3.0,6.0,35,0.00,,,0.00,meteohub,2013-08-07 03:10:00,
2013-08-06 20:15:00,79.2,49.1,29.32,South,180,4.0,5.0,35,0.00,,,0.00,meteohub,2013-08-07 03:15:00,
2013-08-06 20:20:00,78.6,49.5,29.32,SW,225,4.0,5.0,36,0.00,,,0.00,meteohub,2013-08-07 03:20:00,
2013-08-06 20:25:00,78.1,49.6,29.32,SW,225,3.0,4.0,37,0.00,,,0.00,meteohub,2013-08-07 03:25:00,
2013-08-06 20:30:00,77.7,49.5,29.32,SW,225,4.0,6.0,37,0.00,,,0.00,meteohub,2013-08-07 03:30:00,
2013-08-06 20:35:00,77.4,49.8,29.32,South,180,3.0,6.0,38,0.00,,,0.00,meteohub,2013-08-07 03:35:00,
2013-08-06 20:40:00,77.0,50.2,29.32,SW,225,4.0,6.0,39,0.00,,,0.00,meteohub,2013-08-07 03:40:00,
2013-08-06 20:46:00,76.6,49.8,29.33,South,180,3.0,4.0,39,0.00,,,0.00,meteohub,2013-08-07 03:46:00,
2013-08-06 20:51:00,76.3,50.2,29.32,South,180,2.0,4.0,40,0.00,,,0.00,meteohub,2013-08-07 03:51:00,
2013-08-06 20:56:00,76.3,50.9,29.33,South,180,3.0,4.0,41,0.00,,,0.00,meteohub,2013-08-07 03:56:00,
2013-08-06 21:01:00,75.9,50.5,29.33,SW,225,4.0,4.0,41,0.00,,,0.00,meteohub,2013-08-07 04:01:00,
2013-08-06 21:02:00,75.7,51.1,29.33,South,180,2.0,4.0,42,0.00,,,0.00,meteohub,2013-08-07 04:02:00,
2013-08-06 21:03:00,75.7,51.1,29.33,South,180,2.0,4.0,42,0.00,,,0.00,meteohub,2013-08-07 04:03:00,
2013-08-06 21:04:00,75.7,51.1,29.33,South,180,2.0,4.0,42,0.00,,,0.00,meteohub,2013-08-07 04:04:00,
2013-08-06 21:09:00,75.4,50.7,29.33,SW,225,2.0,4.0,42,0.00,,,0.00,meteohub,2013-08-07 04:09:00,
2013-08-06 21:14:00,75.2,50.5,29.34,SW,225,2.0,4.0,42,0.00,,,0.00,meteohub,2013-08-07 04:14:00,
2013-08-06 21:19:00,75.0,50.4,29.34,SW,225,3.0,4.0,42,0.00,,,0.00,meteohub,2013-08-07 04:19:00,
2013-08-06 21:24:00,74.8,50.9,29.34,South,180,4.0,4.0,43,0.00,,,0.00,meteohub,2013-08-07 04:24:00,
2013-08-06 21:29:00,74.5,51.1,29.34,SW,225,2.0,3.0,44,0.00,,,0.00,meteohub,2013-08-07 04:29:00,
2013-08-06 21:34:00,74.1,50.9,29.34,SW,225,3.0,4.0,44,0.00,,,0.00,meteohub,2013-08-07 04:34:00,
2013-08-06 21:39:00,73.6,50.9,29.34,SW,225,2.0,4.0,45,0.00,,,0.00,meteohub,2013-08-07 04:39:00,
2013-08-06 21:44:00,73.2,51.3,29.34,SW,225,2.0,3.0,46,0.00,,,0.00,meteohub,2013-08-07 04:44:00,
2013-08-06 21:49:00,73.2,51.3,29.34,SW,225,3.0,3.0,46,0.00,,,0.00,meteohub,2013-08-07 04:49:00,
2013-08-06 21:54:00,73.2,51.3,29.34,SW,225,3.0,4.0,46,0.00,,,0.00,meteohub,2013-08-07 04:54:00,
2013-08-06 21:59:00,72.9,50.9,29.34,SW,225,2.0,4.0,46,0.00,,,0.00,meteohub,2013-08-07 04:59:00,
2013-08-06 22:04:00,72.5,51.1,29.34,SW,225,2.0,4.0,47,0.00,,,0.00,meteohub,2013-08-07 05:04:00,
2013-08-06 22:09:00,72.1,50.7,29.34,SW,225,2.0,4.0,47,0.00,,,0.00,meteohub,2013-08-07 05:09:00,
2013-08-06 22:14:00,71.6,50.9,29.35,SW,225,2.0,4.0,48,0.00,,,0.00,meteohub,2013-08-07 05:14:00,
2013-08-06 22:19:00,71.4,50.7,29.35,SW,225,2.0,4.0,48,0.00,,,0.00,meteohub,2013-08-07 05:19:00,
2013-08-06 22:24:00,71.2,50.5,29.35,SW,225,2.0,3.0,48,0.00,,,0.00,meteohub,2013-08-07 05:24:00,
2013-08-06 22:29:00,71.1,50.9,29.35,SW,225,2.0,3.0,49,0.00,,,0.00,meteohub,2013-08-07 05:29:00,
2013-08-06 22:34:00,71.1,50.4,29.36,South,180,0.0,3.0,48,0.00,,,0.00,meteohub,2013-08-07 05:34:00,
2013-08-06 22:40:00,70.7,50.0,29.36,SW,225,0.0,3.0,48,0.00,,,0.00,meteohub,2013-08-07 05:40:00,
2013-08-06 22:45:00,70.3,50.4,29.36,SW,225,2.0,3.0,49,0.00,,,0.00,meteohub,2013-08-07 05:45:00,
2013-08-06 22:50:00,70.3,49.6,29.36,SW,225,2.0,3.0,48,0.00,,,0.00,meteohub,2013-08-07 05:50:00,
2013-08-06 22:55:00,70.5,49.8,29.36,SW,225,3.0,3.0,48,0.00,,,0.00,meteohub,2013-08-07 05:55:00,
2013-08-06 23:00:00,70.5,50.4,29.36,SW,225,4.0,4.0,49,0.00,,,0.00,meteohub,2013-08-07 06:00:00,
2013-08-06 23:05:00,70.5,49.8,29.36,SW,225,0.0,4.0,48,0.00,,,0.00,meteohub,2013-08-07 06:05:00,
2013-08-06 23:10:00,70.2,50.2,29.36,SW,225,2.0,4.0,49,0.00,,,0.00,meteohub,2013-08-07 06:10:00,
2013-08-06 23:15:00,70.0,50.0,29.36,SW,225,1.0,3.0,49,0.00,,,0.00,meteohub,2013-08-07 06:15:00,
2013-08-06 23:20:00,69.8,49.8,29.36,SW,225,0.0,2.0,49,0.00,,,0.00,meteohub,2013-08-07 06:20:00,
2013-08-06 23:25:00,69.4,49.5,29.36,SW,225,0.0,2.0,49,0.00,,,0.00,meteohub,2013-08-07 06:25:00,
2013-08-06 23:30:00,69.6,49.1,29.36,SW,225,0.0,1.0,48,0.00,,,0.00,meteohub,2013-08-07 06:30:00,
2013-08-06 23:35:00,69.6,49.1,29.36,SW,225,0.0,1.0,48,0.00,,,0.00,meteohub,2013-08-07 06:35:00,
2013-08-06 23:40:00,69.8,49.3,29.36,SW,225,2.0,0.0,48,0.00,,,0.00,meteohub,2013-08-07 06:40:00,
2013-08-06 23:45:00,69.8,49.3,29.37,SW,225,2.0,4.0,48,0.00,,,0.00,meteohub,2013-08-07 06:45:00,
2013-08-06 23:50:00,69.6,49.1,29.36,SW,225,1.0,4.0,48,0.00,,,0.00,meteohub,2013-08-07 06:50:00,
2013-08-06 23:55:00,70.0,49.5,29.37,SW,225,1.0,4.0,48,0.00,,,0.00,meteohub,2013-08-07 06:55:00,